Colma, California
Current Conditions -  °F | °C
As of 8:56 PM on Saturday 22 Nov 2014 (Local Time) from KSFO Reporting Station
Few Clouds Few Clouds  
Wind Chill: 57°   Ceiling: Unl
Heat Index: 57°   Visibility: 10mi
Dew Point: 52°   Wind: 10mph
Humidity: 83%   Direction: 280°W
Pressure: 30.22"   Gusts: NA
Location:  37.6927°N, 122.447°W
Report Text: KSFO 230456Z 28009KT 10SM FEW200 14/11 A3022 RMK AO2 SLP234 T01390111
Loading
Personal Weather Stations






























Interactive Weather Map New forecast layout! Learn more

10-Day Weather Forecast

Advertisements
Track Severe Weather on mobile